Time;durP1;ratioP1;P1;durP2;ratioP2;P2;SDS_P1;SDS_P2;PMS_P1;PMS_P2;Temp;Humidity;BMP_temperature;BMP_pressure;BME280_temperature;BME280_humidity;BME280_pressure;Samples;Min_cycle;Max_cycle;Signal;HPM_P1;HPM_P2
2023/03/05 00:00:01;;;;;;;4.83;1.70;;;15.70;43.90;;;;;;5042062;28;20475;-79
2023/03/05 00:02:30;;;;;;;3.83;1.80;;;15.70;44.00;;;;;;5037279;28;20454;-78
2023/03/05 00:04:58;;;;;;;3.83;1.93;;;15.70;43.90;;;;;;5040838;28;20533;-80
2023/03/05 00:07:26;;;;;;;3.73;1.53;;;15.70;44.00;;;;;;5045295;28;20459;-79
2023/03/05 00:09:55;;;;;;;4.13;1.90;;;15.60;43.90;;;;;;5047250;28;20459;-77
2023/03/05 00:12:24;;;;;;;1.53;1.43;;;15.60;43.80;;;;;;5037895;28;20467;-77
2023/03/05 00:14:52;;;;;;;3.93;1.97;;;15.60;43.90;;;;;;5043413;28;20497;-77
2023/03/05 00:17:20;;;;;;;4.03;1.60;;;15.50;43.90;;;;;;5038186;28;20467;-79
2023/03/05 00:19:47;;;;;;;3.17;2.03;;;15.50;43.80;;;;;;5046264;28;20447;-80
2023/03/05 00:22:15;;;;;;;3.20;1.90;;;15.50;43.80;;;;;;5037880;28;20457;-79
2023/03/05 00:24:43;;;;;;;3.27;1.60;;;15.50;43.90;;;;;;5044187;28;20497;-79
2023/03/05 00:27:12;;;;;;;3.90;1.60;;;15.50;43.90;;;;;;5048009;28;20466;-78
2023/03/05 00:29:40;;;;;;;6.07;2.30;;;15.50;44.00;;;;;;5046337;28;20454;-78
2023/03/05 00:32:08;;;;;;;4.20;1.63;;;15.40;43.90;;;;;;5040243;28;20554;-79
2023/03/05 00:34:36;;;;;;;2.20;1.43;;;15.40;43.90;;;;;;5042585;28;20475;-79
2023/03/05 00:37:05;;;;;;;4.20;2.03;;;15.40;43.90;;;;;;5042994;28;20494;-78
2023/03/05 00:39:33;;;;;;;3.40;1.70;;;15.40;43.80;;;;;;5040199;28;20462;-78
2023/03/05 00:42:01;;;;;;;3.37;1.70;;;15.40;43.90;;;;;;5038977;28;20482;-80
2023/03/05 00:44:30;;;;;;;1.90;1.50;;;15.40;43.90;;;;;;5038155;28;20472;-79
2023/03/05 00:46:58;;;;;;;3.80;2.10;;;15.30;43.80;;;;;;5043118;28;20455;-79
2023/03/05 00:49:27;;;;;;;2.00;1.33;;;15.30;43.80;;;;;;5042497;28;20459;-81
2023/03/05 00:51:55;;;;;;;2.97;1.50;;;15.30;43.80;;;;;;5040839;28;20455;-80
2023/03/05 00:54:23;;;;;;;4.63;1.73;;;15.30;43.80;;;;;;5038940;28;20479;-77
2023/03/05 00:56:51;;;;;;;2.17;1.70;;;15.30;43.90;;;;;;5040440;28;20470;-77
2023/03/05 00:59:19;;;;;;;2.90;1.57;;;15.30;43.90;;;;;;5040117;28;20454;-78
2023/03/05 01:01:48;;;;;;;4.23;1.60;;;15.30;44.00;;;;;;5037213;28;20463;-79
2023/03/05 01:04:17;;;;;;;3.03;1.50;;;15.30;44.10;;;;;;5038377;28;20470;-77
2023/03/05 01:06:45;;;;;;;4.63;1.77;;;15.30;44.30;;;;;;5037834;28;20455;-78
2023/03/05 01:09:13;;;;;;;1.83;1.20;;;15.30;44.30;;;;;;5039058;28;20451;-79
2023/03/05 01:11:44;;;;;;;2.40;1.60;;;15.30;44.50;;;;;;5036449;28;20471;-79
2023/03/05 01:14:12;;;;;;;3.93;1.77;;;15.30;44.60;;;;;;5039796;28;20478;-77
2023/03/05 01:16:40;;;;;;;1.63;1.10;;;15.30;44.70;;;;;;5047219;28;20450;-78
2023/03/05 01:19:09;;;;;;;1.40;1.30;;;15.30;44.70;;;;;;5043118;28;20460;-78
2023/03/05 01:21:37;;;;;;;4.30;1.60;;;15.30;45.00;;;;;;5036355;28;20463;-77
2023/03/05 01:24:06;;;;;;;2.73;1.70;;;15.30;45.00;;;;;;5041838;28;20458;-78
2023/03/05 01:26:34;;;;;;;2.17;1.43;;;15.30;45.10;;;;;;5039826;28;20467;-78
2023/03/05 01:29:02;;;;;;;5.47;1.50;;;15.30;45.30;;;;;;5037955;28;20465;-76
2023/03/05 01:31:30;;;;;;;4.50;1.80;;;15.30;45.30;;;;;;5040743;28;20455;-78
2023/03/05 01:33:59;;;;;;;6.20;1.73;;;15.30;45.30;;;;;;5035456;28;20478;-78
2023/03/05 01:36:29;;;;;;;4.33;1.60;;;15.20;45.40;;;;;;5046838;28;20458;-78
2023/03/05 01:38:57;;;;;;;2.67;1.30;;;15.20;45.50;;;;;;5044760;28;20501;-78
2023/03/05 01:41:25;;;;;;;4.60;1.90;;;15.20;45.50;;;;;;5033679;28;20466;-77
2023/03/05 01:43:53;;;;;;;2.60;1.90;;;15.20;45.60;;;;;;5038810;28;20470;-78
2023/03/05 01:46:30;;;;;;;4.53;1.60;;;15.10;45.50;;;;;;5044810;28;20450;-78
2023/03/05 01:49:10;;;;;;;2.47;1.47;;;15.10;45.70;;;;;;5039338;28;20463;-78
2023/03/05 01:51:41;;;;;;;2.87;1.43;;;15.10;45.90;;;;;;5036988;28;20464;-78
2023/03/05 01:54:10;;;;;;;6.30;1.60;;;15.10;46.00;;;;;;5034854;28;20474;-78
2023/03/05 01:56:38;;;;;;;2.90;1.40;;;15.10;46.00;;;;;;5038082;28;20486;-78
2023/03/05 01:59:06;;;;;;;1.47;1.23;;;15.10;46.00;;;;;;5043715;28;20459;-77
2023/03/05 02:01:36;;;;;;;1.53;1.43;;;15.10;46.10;;;;;;5037401;28;20462;-76
2023/03/05 02:04:04;;;;;;;2.53;1.40;;;15.10;46.10;;;;;;5039524;28;20474;-77
2023/03/05 02:06:32;;;;;;;4.93;1.50;;;15.10;46.20;;;;;;5036983;28;20450;-76
2023/03/05 02:09:02;;;;;;;2.63;1.40;;;15.20;46.20;;;;;;5037958;28;20473;-77
2023/03/05 02:11:30;;;;;;;2.60;1.50;;;15.10;46.30;;;;;;5039347;28;20475;-78
2023/03/05 02:13:58;;;;;;;3.00;1.50;;;15.10;46.30;;;;;;5037356;28;21191;-77
2023/03/05 02:16:26;;;;;;;3.40;1.50;;;15.10;46.40;;;;;;5036591;28;20451;-78
2023/03/05 02:18:54;;;;;;;3.20;1.93;;;15.10;46.40;;;;;;5033948;28;20473;-78
2023/03/05 02:21:29;;;;;;;2.97;1.23;;;15.00;46.40;;;;;;5034933;28;20447;-78
2023/03/05 02:23:57;;;;;;;1.33;1.10;;;15.00;46.40;;;;;;5036648;28;20507;-78
2023/03/05 02:26:25;;;;;;;4.40;1.57;;;15.00;46.50;;;;;;5035804;28;20471;-77
2023/03/05 02:28:54;;;;;;;2.33;1.67;;;15.00;46.60;;;;;;5036543;28;20448;-76
2023/03/05 02:31:23;;;;;;;3.30;1.53;;;15.00;46.60;;;;;;5032098;28;20443;-77
2023/03/05 02:33:52;;;;;;;2.60;1.23;;;15.00;46.60;;;;;;5035501;28;20521;-77
2023/03/05 02:36:21;;;;;;;2.37;1.30;;;15.00;46.80;;;;;;5040554;28;20466;-77
2023/03/05 02:38:51;;;;;;;1.73;1.20;;;15.00;46.70;;;;;;5041864;28;20450;-77
2023/03/05 02:41:19;;;;;;;1.77;1.40;;;15.00;46.80;;;;;;5035481;28;20481;-78
2023/03/05 02:43:47;;;;;;;1.60;1.33;;;15.00;46.90;;;;;;5038388;28;20447;-77
2023/03/05 02:46:15;;;;;;;1.60;1.10;;;15.00;46.80;;;;;;5037708;28;20458;-78
2023/03/05 02:48:43;;;;;;;2.60;1.43;;;14.90;46.90;;;;;;5044534;28;20537;-78
2023/03/05 02:51:11;;;;;;;1.77;1.10;;;15.00;47.00;;;;;;5044372;28;20454;-77
2023/03/05 02:53:38;;;;;;;5.00;1.27;;;14.90;46.90;;;;;;5037173;28;20494;-76
2023/03/05 02:56:08;;;;;;;3.83;1.60;;;14.90;47.00;;;;;;5039855;28;20467;-77
2023/03/05 02:58:36;;;;;;;3.00;1.70;;;14.90;47.10;;;;;;5034728;28;20452;-77
2023/03/05 03:01:04;;;;;;;5.17;1.77;;;14.90;47.00;;;;;;5045392;28;20462;-78
2023/03/05 03:03:32;;;;;;;5.37;1.70;;;14.90;47.10;;;;;;5036594;28;20939;-78
2023/03/05 03:06:00;;;;;;;5.20;1.40;;;14.90;47.20;;;;;;5037165;28;20482;-78
2023/03/05 03:08:28;;;;;;;3.77;1.43;;;14.90;47.20;;;;;;5039622;28;20454;-78
2023/03/05 03:10:56;;;;;;;2.20;1.30;;;14.90;47.20;;;;;;5038377;28;20474;-76
2023/03/05 03:13:26;;;;;;;1.87;1.37;;;14.90;47.10;;;;;;5044970;28;20475;-78
2023/03/05 03:16:01;;;;;;;2.60;1.40;;;14.90;47.30;;;;;;5042060;28;20474;-79
2023/03/05 03:18:29;;;;;;;1.70;1.10;;;14.90;47.10;;;;;;5050250;28;20442;-79
2023/03/05 03:20:57;;;;;;;3.10;1.60;;;14.90;47.30;;;;;;5041050;28;20527;-78
2023/03/05 03:23:25;;;;;;;3.20;1.50;;;14.90;47.30;;;;;;5048098;28;20474;-79
2023/03/05 03:25:53;;;;;;;2.53;1.20;;;14.90;47.40;;;;;;5044240;28;20481;-78
2023/03/05 03:28:21;;;;;;;3.20;1.57;;;14.90;47.40;;;;;;5043399;28;20451;-79
2023/03/05 03:30:50;;;;;;;1.50;1.40;;;14.90;47.40;;;;;;5045928;28;20476;-77
2023/03/05 03:33:17;;;;;;;1.90;1.40;;;14.90;47.40;;;;;;5036589;28;20542;-77
2023/03/05 03:35:45;;;;;;;1.47;1.27;;;14.90;47.40;;;;;;5041217;28;20478;-76
2023/03/05 03:38:13;;;;;;;1.20;1.10;;;14.90;47.50;;;;;;5044062;28;20462;-78
2023/03/05 03:40:41;;;;;;;3.70;1.10;;;14.90;47.50;;;;;;5045929;28;20986;-78
2023/03/05 03:43:09;;;;;;;2.70;1.53;;;14.90;47.60;;;;;;5035708;28;20448;-78
2023/03/05 03:45:40;;;;;;;1.80;1.37;;;14.90;47.60;;;;;;5044300;28;20477;-79
2023/03/05 03:48:10;;;;;;;1.83;1.30;;;14.90;47.60;;;;;;5042767;28;20449;-77
2023/03/05 03:50:38;;;;;;;2.20;1.27;;;14.90;47.70;;;;;;5035401;28;20458;-77
2023/03/05 03:53:06;;;;;;;3.40;1.27;;;14.80;47.50;;;;;;5038925;28;20526;-77
2023/03/05 03:55:34;;;;;;;1.20;1.10;;;14.80;47.70;;;;;;5047568;28;20489;-78
2023/03/05 03:58:03;;;;;;;1.47;1.30;;;14.80;47.80;;;;;;5035696;28;20477;-78
2023/03/05 04:00:30;;;;;;;9.60;1.60;;;14.80;48.30;;;;;;5040589;28;20454;-78
2023/03/05 04:02:58;;;;;;;2.57;1.17;;;14.80;47.70;;;;;;5041326;28;20502;-77
2023/03/05 04:05:27;;;;;;;2.97;1.30;;;14.80;47.80;;;;;;5043574;28;20506;-79
2023/03/05 04:07:57;;;;;;;2.30;1.30;;;14.80;47.70;;;;;;5039942;28;20469;-78
2023/03/05 04:10:25;;;;;;;1.53;1.17;;;14.80;47.90;;;;;;5035833;28;20458;-77
2023/03/05 04:12:53;;;;;;;2.07;1.67;;;14.70;47.80;;;;;;5034564;28;20451;-78
2023/03/05 04:15:21;;;;;;;1.87;1.20;;;14.80;47.90;;;;;;5040440;28;20476;-77
2023/03/05 04:17:49;;;;;;;3.93;1.13;;;14.80;47.90;;;;;;5043527;28;20462;-78
2023/03/05 04:20:17;;;;;;;1.30;1.00;;;14.70;47.70;;;;;;5039672;28;20525;-78
2023/03/05 04:22:46;;;;;;;3.10;1.40;;;14.70;47.90;;;;;;5046591;28;20490;-78
2023/03/05 04:25:14;;;;;;;1.07;1.00;;;14.70;47.90;;;;;;5036429;28;20462;-78
2023/03/05 04:27:42;;;;;;;2.83;1.30;;;14.70;48.00;;;;;;5045860;28;20466;-77
2023/03/05 04:30:13;;;;;;;2.70;1.30;;;14.60;47.90;;;;;;5047228;28;20453;-78
2023/03/05 04:32:41;;;;;;;2.60;1.10;;;14.70;48.00;;;;;;5042453;28;20530;-77
2023/03/05 04:35:09;;;;;;;2.70;1.00;;;14.70;48.10;;;;;;5045987;28;20479;-78
2023/03/05 04:37:37;;;;;;;2.17;1.23;;;14.60;48.00;;;;;;5040851;28;20451;-78
2023/03/05 04:40:08;;;;;;;3.30;1.13;;;14.60;48.00;;;;;;5040902;28;20474;-78
2023/03/05 04:42:36;;;;;;;1.83;0.97;;;14.60;48.20;;;;;;5040116;28;20482;-78
2023/03/05 04:45:05;;;;;;;1.67;1.40;;;14.60;48.20;;;;;;5045239;28;20479;-77
2023/03/05 04:47:33;;;;;;;2.10;1.27;;;14.60;48.10;;;;;;5043619;28;20462;-78
2023/03/05 04:50:02;;;;;;;1.47;1.07;;;14.60;48.20;;;;;;5039559;28;20459;-78
2023/03/05 04:52:32;;;;;;;0.97;0.97;;;14.50;48.10;;;;;;5040345;28;20455;-76
2023/03/05 04:55:00;;;;;;;2.20;1.43;;;14.60;48.30;;;;;;5043107;28;20483;-78
2023/03/05 04:57:29;;;;;;;1.27;1.20;;;14.60;48.30;;;;;;5041941;28;20478;-77
2023/03/05 04:59:57;;;;;;;2.23;1.10;;;14.60;48.20;;;;;;5040895;28;20455;-78
2023/03/05 05:02:25;;;;;;;1.60;1.13;;;14.50;48.20;;;;;;5033879;28;20477;-78
2023/03/05 05:04:53;;;;;;;2.47;1.00;;;14.50;48.20;;;;;;5042545;28;20532;-78
2023/03/05 05:07:21;;;;;;;2.40;1.10;;;14.50;48.20;;;;;;5041370;28;20451;-78
2023/03/05 05:09:48;;;;;;;2.27;1.10;;;14.50;48.30;;;;;;5039626;28;20450;-78
2023/03/05 05:12:16;;;;;;;1.90;1.13;;;14.60;48.40;;;;;;5032865;28;20481;-78
2023/03/05 05:14:45;;;;;;;1.80;1.13;;;14.60;48.50;;;;;;5041582;28;20486;-77
2023/03/05 05:17:13;;;;;;;1.40;1.07;;;14.60;48.40;;;;;;5040479;28;20449;-78
2023/03/05 05:19:41;;;;;;;1.43;1.33;;;14.60;48.40;;;;;;5043686;28;20450;-78
2023/03/05 05:22:09;;;;;;;1.07;1.00;;;14.50;48.30;;;;;;5034983;28;20448;-78
2023/03/05 05:24:37;;;;;;;2.00;1.13;;;14.60;48.40;;;;;;5039240;28;20460;-77
2023/03/05 05:27:06;;;;;;;0.90;0.90;;;14.50;48.30;;;;;;5037238;28;20567;-77
2023/03/05 05:29:34;;;;;;;5.70;1.03;;;14.50;48.40;;;;;;5046723;28;20466;-78
2023/03/05 05:32:03;;;;;;;1.07;0.90;;;14.50;48.40;;;;;;5038801;28;20466;-78
2023/03/05 05:34:31;;;;;;;1.00;0.90;;;14.50;48.30;;;;;;5043254;28;20581;-78
2023/03/05 05:36:59;;;;;;;1.00;0.90;;;14.50;48.30;;;;;;5033848;28;20474;-77
2023/03/05 05:39:27;;;;;;;1.10;1.00;;;14.60;48.50;;;;;;5037914;28;20462;-77
2023/03/05 05:41:55;;;;;;;3.07;1.07;;;14.50;48.30;;;;;;5038061;28;20485;-76
2023/03/05 05:44:23;;;;;;;1.20;1.10;;;14.50;48.50;;;;;;5035026;28;20848;-76
2023/03/05 05:46:51;;;;;;;2.00;1.17;;;14.50;48.40;;;;;;5045285;28;20447;-78
2023/03/05 05:49:20;;;;;;;1.73;1.20;;;14.50;48.50;;;;;;5039578;28;20481;-77
2023/03/05 05:51:47;;;;;;;1.30;1.20;;;14.50;48.50;;;;;;5033615;28;20443;-76
2023/03/05 05:54:15;;;;;;;1.67;0.90;;;14.40;48.50;;;;;;5034995;28;20988;-78
2023/03/05 05:56:43;;;;;;;2.00;1.07;;;14.40;48.50;;;;;;5041163;28;20987;-78
2023/03/05 05:59:11;;;;;;;1.77;1.20;;;14.40;48.60;;;;;;5039038;28;20448;-77
2023/03/05 06:01:39;;;;;;;1.23;1.00;;;14.40;48.60;;;;;;5041205;28;20451;-77
2023/03/05 06:04:08;;;;;;;1.20;1.10;;;14.40;48.50;;;;;;5037255;28;20522;-78
2023/03/05 06:06:37;;;;;;;1.77;1.23;;;14.40;48.60;;;;;;5037727;28;20478;-79
2023/03/05 06:09:05;;;;;;;1.80;1.17;;;14.40;48.60;;;;;;5036340;28;20450;-78
2023/03/05 06:11:33;;;;;;;1.50;1.00;;;14.40;48.50;;;;;;5037326;28;20474;-78
2023/03/05 06:14:02;;;;;;;0.93;0.90;;;14.30;48.50;;;;;;5034546;28;20558;-78
2023/03/05 06:16:30;;;;;;;1.40;1.03;;;14.30;48.50;;;;;;5036145;28;20527;-78
2023/03/05 06:18:58;;;;;;;1.43;1.10;;;14.30;48.50;;;;;;5039769;28;20457;-78
2023/03/05 06:21:28;;;;;;;1.73;1.00;;;14.30;48.50;;;;;;5036842;28;20486;-78
2023/03/05 06:23:58;;;;;;;1.33;1.23;;;14.20;48.60;;;;;;5044498;28;20455;-78
2023/03/05 06:26:26;;;;;;;1.40;1.10;;;14.20;48.60;;;;;;5034279;28;20460;-78
2023/03/05 06:28:54;;;;;;;1.73;1.10;;;14.30;48.80;;;;;;5045244;28;20459;-78
2023/03/05 06:31:24;;;;;;;1.03;0.93;;;14.20;48.70;;;;;;5044417;28;20870;-77
2023/03/05 06:33:52;;;;;;;1.77;0.80;;;14.20;48.70;;;;;;5041036;28;20487;-77
2023/03/05 06:36:20;;;;;;;2.77;1.20;;;14.20;48.60;;;;;;5045917;28;20489;-78
2023/03/05 06:38:48;;;;;;;1.73;0.90;;;14.30;48.80;;;;;;5039633;28;20458;-77
2023/03/05 06:41:21;;;;;;;1.43;1.00;;;14.30;48.80;;;;;;5038529;28;20471;-77
2023/03/05 06:43:49;;;;;;;2.10;0.80;;;14.30;48.80;;;;;;5038623;28;20446;-78
2023/03/05 06:46:18;;;;;;;1.73;0.90;;;14.30;48.70;;;;;;5035940;28;20481;-78
2023/03/05 06:48:46;;;;;;;1.23;1.00;;;14.30;48.80;;;;;;5043832;28;20446;-77
2023/03/05 06:51:15;;;;;;;1.27;1.00;;;14.30;48.80;;;;;;5040282;28;20501;-77
2023/03/05 06:53:42;;;;;;;2.40;1.10;;;14.30;48.80;;;;;;5040043;28;20458;-78
2023/03/05 06:56:12;;;;;;;1.00;0.80;;;14.30;48.80;;;;;;5039084;28;20487;-77
2023/03/05 06:58:41;;;;;;;1.40;1.00;;;14.30;48.80;;;;;;5038808;28;20451;-78
2023/03/05 07:01:09;;;;;;;1.03;0.93;;;14.30;48.70;;;;;;5040641;28;20448;-77
2023/03/05 07:03:37;;;;;;;1.03;0.90;;;14.40;48.90;;;;;;5036243;28;20462;-79
2023/03/05 07:06:05;;;;;;;1.53;1.00;;;14.40;48.80;;;;;;5038741;28;20447;-78
2023/03/05 07:08:33;;;;;;;2.10;0.90;;;14.40;48.80;;;;;;5037650;28;20451;-78
2023/03/05 07:11:01;;;;;;;1.50;1.07;;;14.50;48.80;;;;;;5047353;28;20473;-78
2023/03/05 07:13:28;;;;;;;1.17;0.90;;;14.50;48.80;;;;;;5039860;28;20451;-78
2023/03/05 07:15:57;;;;;;;0.77;0.77;;;14.50;48.80;;;;;;5037248;28;20474;-78
2023/03/05 07:18:26;;;;;;;1.17;0.90;;;14.60;48.90;;;;;;5045535;28;20525;-76
2023/03/05 07:20:54;;;;;;;1.47;0.73;;;14.60;48.70;;;;;;5049506;28;20450;-78
2023/03/05 07:23:22;;;;;;;1.17;1.00;;;14.70;48.70;;;;;;5042823;28;20448;-77
2023/03/05 07:25:49;;;;;;;1.37;1.07;;;14.70;48.80;;;;;;5042879;28;20463;-78
2023/03/05 07:28:17;;;;;;;0.90;0.80;;;14.70;48.80;;;;;;5037667;28;20450;-78
2023/03/05 07:30:45;;;;;;;1.87;1.10;;;14.70;48.60;;;;;;5043569;28;20455;-78
2023/03/05 07:33:14;;;;;;;1.10;1.00;;;14.80;48.70;;;;;;5045622;28;20462;-77
2023/03/05 07:35:43;;;;;;;2.60;0.73;;;14.80;48.70;;;;;;5038404;28;20482;-78
2023/03/05 07:38:11;;;;;;;1.20;0.80;;;14.90;48.70;;;;;;5039368;28;20455;-78
2023/03/05 07:40:38;;;;;;;1.70;0.83;;;14.90;48.60;;;;;;5040395;28;20455;-78
2023/03/05 07:43:06;;;;;;;2.10;0.80;;;14.90;48.70;;;;;;5044645;28;20481;-78
2023/03/05 07:45:34;;;;;;;3.60;1.00;;;14.90;48.60;;;;;;5039970;28;20486;-78
2023/03/05 07:48:02;;;;;;;1.00;0.90;;;14.90;48.60;;;;;;5041687;28;20451;-78
2023/03/05 07:50:32;;;;;;;1.70;0.90;;;14.90;48.70;;;;;;5042965;28;20443;-78
2023/03/05 07:53:00;;;;;;;1.23;1.13;;;14.90;48.80;;;;;;5040992;28;20455;-77
2023/03/05 07:55:28;;;;;;;1.07;0.90;;;14.90;48.80;;;;;;5040374;28;20872;-78
2023/03/05 07:57:55;;;;;;;0.80;0.80;;;15.00;48.70;;;;;;5048024;28;20602;-78
2023/03/05 08:00:23;;;;;;;1.20;1.00;;;15.00;48.80;;;;;;5045867;28;20451;-79
2023/03/05 08:02:51;;;;;;;1.80;1.00;;;15.00;48.70;;;;;;5039610;28;20510;-78
2023/03/05 08:05:19;;;;;;;1.40;1.20;;;15.10;48.70;;;;;;5051049;28;20513;-79
2023/03/05 08:07:48;;;;;;;0.90;0.90;;;15.10;48.70;;;;;;5044494;28;20505;-79
2023/03/05 08:10:16;;;;;;;1.20;1.10;;;15.20;48.80;;;;;;5043063;28;20455;-79
2023/03/05 08:12:43;;;;;;;1.60;1.10;;;15.20;48.80;;;;;;5045284;28;20465;-78
2023/03/05 08:15:11;;;;;;;1.27;0.90;;;15.40;48.90;;;;;;5043523;28;20475;-77
2023/03/05 08:17:39;;;;;;;2.83;1.10;;;15.40;48.70;;;;;;5038161;28;20471;-78
2023/03/05 08:20:09;;;;;;;2.23;1.03;;;15.40;48.70;;;;;;5043510;28;20456;-78
2023/03/05 08:22:38;;;;;;;1.17;1.07;;;15.40;48.60;;;;;;5039142;28;20456;-79
2023/03/05 08:25:08;;;;;;;1.43;1.00;;;15.50;48.70;;;;;;5038532;28;20467;-78
2023/03/05 08:27:38;;;;;;;1.70;1.00;;;15.50;48.70;;;;;;5035301;28;20475;-78
2023/03/05 08:30:09;;;;;;;1.50;1.00;;;15.60;48.70;;;;;;5040325;28;20459;-77
2023/03/05 08:32:37;;;;;;;2.40;0.90;;;15.60;48.90;;;;;;5044277;28;20997;-77
2023/03/05 08:35:06;;;;;;;1.10;0.90;;;15.70;48.90;;;;;;5047324;28;20472;-78
2023/03/05 08:37:34;;;;;;;1.10;1.00;;;15.90;49.10;;;;;;5040805;28;20471;-78
2023/03/05 08:40:01;;;;;;;1.83;0.87;;;16.00;49.00;;;;;;5043156;28;20450;-77
2023/03/05 08:42:31;;;;;;;1.00;0.87;;;16.20;49.10;;;;;;5038542;28;20475;-78
2023/03/05 08:44:58;;;;;;;1.87;1.10;;;16.30;48.90;;;;;;5040668;28;20542;-77
2023/03/05 08:47:26;;;;;;;1.27;1.00;;;16.40;48.80;;;;;;5038061;28;20448;-78
2023/03/05 08:49:56;;;;;;;0.90;0.80;;;16.40;48.70;;;;;;5042987;28;20456;-78
2023/03/05 08:52:26;;;;;;;1.17;0.80;;;16.50;48.80;;;;;;5044093;28;20455;-79
2023/03/05 08:54:54;;;;;;;1.10;0.90;;;16.40;48.50;;;;;;5038814;28;20562;-77
2023/03/05 08:57:22;;;;;;;0.80;0.80;;;16.50;48.50;;;;;;5037129;28;20478;-77
2023/03/05 08:59:51;;;;;;;1.10;1.00;;;16.50;48.40;;;;;;5042952;28;20455;-78
2023/03/05 09:02:19;;;;;;;1.10;1.10;;;16.50;48.30;;;;;;5039024;28;20455;-78
2023/03/05 09:04:46;;;;;;;1.37;1.00;;;16.50;48.30;;;;;;5041421;28;20502;-79
2023/03/05 09:07:14;;;;;;;1.30;1.13;;;16.40;48.30;;;;;;5044565;28;20452;-78
2023/03/05 09:09:42;;;;;;;1.20;0.90;;;16.40;48.40;;;;;;5035943;28;20459;-79
2023/03/05 09:12:12;;;;;;;1.00;1.00;;;16.40;48.40;;;;;;5038748;28;20483;-78
2023/03/05 09:14:39;;;;;;;1.30;1.00;;;16.40;48.40;;;;;;5042617;28;20471;-79
2023/03/05 09:17:08;;;;;;;1.13;1.00;;;16.50;48.40;;;;;;5034381;28;20479;-78
2023/03/05 09:19:36;;;;;;;3.20;1.20;;;16.50;48.40;;;;;;5037386;28;20454;-79
2023/03/05 09:22:04;;;;;;;2.40;1.00;;;16.40;48.40;;;;;;5042127;28;20446;-78
2023/03/05 09:24:32;;;;;;;1.30;1.20;;;16.40;48.40;;;;;;5047110;28;20494;-79
2023/03/05 09:26:59;;;;;;;1.30;1.07;;;16.50;48.50;;;;;;5037276;28;20508;-78
2023/03/05 09:29:29;;;;;;;1.03;1.03;;;16.50;48.60;;;;;;5037204;28;20450;-79
2023/03/05 09:31:57;;;;;;;1.10;1.00;;;16.60;48.70;;;;;;5044453;28;20488;-78
2023/03/05 09:34:27;;;;;;;1.23;1.00;;;16.70;48.50;;;;;;5045871;28;20910;-79
2023/03/05 09:36:54;;;;;;;1.40;1.27;;;16.90;48.60;;;;;;5036687;28;20490;-77
2023/03/05 09:39:22;;;;;;;1.17;1.00;;;17.00;48.50;;;;;;5042308;28;20460;-78
2023/03/05 09:42:09;;;;;;;1.30;1.00;;;17.10;48.60;;;;;;5035018;28;20468;-78
2023/03/05 09:44:41;;;;;;;1.20;1.07;;;17.30;48.80;;;;;;5033930;28;20494;-79
2023/03/05 09:47:25;;;;;;;0.97;0.87;;;17.60;48.90;;;;;;5034179;28;20444;-78
2023/03/05 09:49:58;;;;;;;3.03;1.10;;;17.90;48.90;;;;;;5039405;28;20447;-79
2023/03/05 09:52:33;;;;;;;1.10;1.00;;;18.10;48.70;;;;;;5033824;28;20451;-77
2023/03/05 09:55:00;;;;;;;1.00;1.00;;;18.30;48.60;;;;;;5034072;28;20982;-77
2023/03/05 09:57:31;;;;;;;1.70;1.37;;;18.50;48.40;;;;;;5040903;28;20490;-78
2023/03/05 09:59:59;;;;;;;1.50;1.13;;;18.60;48.40;;;;;;5037224;28;21062;-78
2023/03/05 10:02:29;;;;;;;1.27;1.00;;;18.70;48.20;;;;;;5044259;28;20461;-78
2023/03/05 10:05:02;;;;;;;1.73;0.97;;;18.80;48.20;;;;;;5039649;28;20474;-77
2023/03/05 10:07:31;;;;;;;2.00;1.10;;;18.80;48.10;;;;;;5043810;28;20455;-78
2023/03/05 10:10:00;;;;;;;10.90;1.37;;;18.90;48.10;;;;;;5042243;28;20458;-78
2023/03/05 10:12:37;;;;;;;2.00;0.90;;;18.70;45.90;;;;;;5034494;28;20486;-77
2023/03/05 10:15:11;;;;;;;5.00;1.00;;;17.20;40.90;;;;;;5033803;28;20482;-77
2023/03/05 10:17:51;;;;;;;1.43;1.20;;;15.60;41.20;;;;;;5039227;28;20494;-79
2023/03/05 10:20:31;;;;;;;1.23;1.00;;;14.30;41.70;;;;;;5037883;28;20439;-80
2023/03/05 10:23:13;;;;;;;2.20;1.10;;;13.80;43.20;;;;;;5040488;28;20455;-80
2023/03/05 10:25:50;;;;;;;3.90;1.20;;;13.50;44.50;;;;;;5047307;28;20482;-78
2023/03/05 10:28:21;;;;;;;5.13;1.00;;;13.80;44.80;;;;;;5040473;28;20447;-78
2023/03/05 10:30:57;;;;;;;8.07;1.40;;;15.40;47.10;;;;;;5039107;28;20455;-80
2023/03/05 10:33:28;;;;;;;5.83;0.90;;;16.60;44.50;;;;;;5038302;28;20455;-78
2023/03/05 10:36:21;;;;;;;1.70;1.07;;;17.60;43.60;;;;;;5045134;28;20857;-79
2023/03/05 10:39:08;;;;;;;2.40;1.07;;;18.50;42.50;;;;;;5039931;28;20475;-78
2023/03/05 10:41:39;;;;;;;2.80;1.00;;;19.00;41.70;;;;;;5041253;28;20506;-79
2023/03/05 10:44:11;;;;;;;2.30;1.23;;;19.40;41.40;;;;;;5047663;28;20474;-78
2023/03/05 10:46:38;;;;;;;4.40;1.30;;;19.90;41.60;;;;;;5042811;28;20465;-78
2023/03/05 10:49:14;;;;;;;3.37;1.50;;;20.20;41.10;;;;;;5042700;28;20451;-78
2023/03/05 10:51:48;;;;;;;3.90;1.57;;;20.40;40.90;;;;;;5039928;28;20459;-79
2023/03/05 10:54:19;;;;;;;5.50;1.80;;;20.60;40.80;;;;;;5045243;28;20467;-78
2023/03/05 10:56:47;;;;;;;3.33;1.70;;;20.80;40.80;;;;;;5041673;28;20494;-79
2023/03/05 10:59:15;;;;;;;5.20;1.70;;;20.90;40.60;;;;;;5039574;28;20463;-81
2023/03/05 11:01:42;;;;;;;4.13;1.67;;;20.90;40.60;;;;;;5044819;28;20475;-78
2023/03/05 11:04:26;;;;;;;3.83;1.70;;;21.00;40.90;;;;;;5042212;28;20497;-79
2023/03/05 11:06:55;;;;;;;5.17;2.07;;;21.00;40.60;;;;;;5042377;28;20451;-79
2023/03/05 11:09:27;;;;;;;3.27;2.13;;;20.90;40.60;;;;;;5048334;28;20461;-78
2023/03/05 11:12:04;;;;;;;4.27;1.63;;;20.80;40.90;;;;;;5039285;28;20537;-79
2023/03/05 11:14:32;;;;;;;3.70;2.10;;;20.70;41.00;;;;;;5037479;28;20480;-76
2023/03/05 11:17:01;;;;;;;1.97;1.80;;;20.60;41.30;;;;;;5041962;28;20458;-79
2023/03/05 11:19:31;;;;;;;1.80;1.70;;;20.50;41.50;;;;;;5041535;28;20475;-78
2023/03/05 11:22:14;;;;;;;8.60;2.10;;;20.40;41.60;;;;;;5039655;28;20461;-79
2023/03/05 11:24:42;;;;;;;2.30;1.70;;;20.30;41.90;;;;;;5044851;28;20470;-79
2023/03/05 11:27:22;;;;;;;4.10;1.90;;;20.40;42.40;;;;;;5035394;28;20479;-78
2023/03/05 11:29:50;;;;;;;5.60;2.07;;;20.90;42.10;;;;;;5037782;28;20446;-78
2023/03/05 11:32:21;;;;;;;3.23;2.50;;;21.00;42.30;;;;;;5039212;28;20473;-76
2023/03/05 11:34:49;;;;;;;3.17;2.40;;;22.20;42.40;;;;;;5039446;28;20523;-77
2023/03/05 11:37:24;;;;;;;3.60;2.57;;;23.30;41.80;;;;;;5044912;28;20465;-78
2023/03/05 11:40:14;;;;;;;3.10;2.40;;;25.10;40.60;;;;;;5044232;28;20440;-79
2023/03/05 11:42:42;;;;;;;2.27;2.10;;;25.30;37.60;;;;;;5037499;28;20446;-77
2023/03/05 11:45:14;;;;;;;4.17;2.10;;;25.90;37.40;;;;;;5053823;28;20445;-78
2023/03/05 11:47:44;;;;;;;3.80;2.17;;;25.70;37.40;;;;;;5042235;28;20447;-79
2023/03/05 11:50:16;;;;;;;2.87;2.50;;;26.70;37.60;;;;;;5039230;28;20451;-80
2023/03/05 11:52:47;;;;;;;2.47;2.27;;;27.40;37.40;;;;;;5044091;28;20459;-79
2023/03/05 11:55:15;;;;;;;2.20;2.00;;;28.10;36.80;;;;;;5043954;28;20449;-75
2023/03/05 11:57:45;;;;;;;2.37;2.17;;;29.90;35.60;;;;;;5043777;28;20474;-77
2023/03/05 12:00:15;;;;;;;2.07;1.97;;;29.90;33.00;;;;;;5037454;28;20498;-78
2023/03/05 12:02:42;;;;;;;2.10;2.00;;;29.50;32.60;;;;;;5039790;28;20462;-79
2023/03/05 12:05:14;;;;;;;4.93;2.07;;;29.00;33.00;;;;;;5040667;28;20474;-77
2023/03/05 12:07:44;;;;;;;2.20;2.10;;;29.60;34.40;;;;;;5041590;28;20439;-78
2023/03/05 12:10:16;;;;;;;3.23;2.37;;;29.00;32.50;;;;;;5043682;28;20534;-79
2023/03/05 12:12:46;;;;;;;3.00;2.10;;;28.00;33.40;;;;;;5045703;28;20478;-77
2023/03/05 12:15:30;;;;;;;2.90;2.60;;;27.20;34.30;;;;;;5052993;28;20437;-84
2023/03/05 12:18:05;;;;;;;3.83;2.50;;;26.30;35.50;;;;;;5042483;28;20463;-80
2023/03/05 12:20:35;;;;;;;4.10;2.30;;;25.50;36.40;;;;;;5048051;28;20438;-78
2023/03/05 12:23:04;;;;;;;2.40;2.30;;;24.80;37.30;;;;;;5045690;28;20459;-78
2023/03/05 12:25:34;;;;;;;2.70;2.20;;;24.40;38.30;;;;;;5040627;28;20794;-80
2023/03/05 12:28:04;;;;;;;2.60;2.40;;;24.10;38.60;;;;;;5043047;28;20426;-82
2023/03/05 12:30:55;;;;;;;2.07;1.97;;;23.80;39.00;;;;;;5043751;28;20923;-79
2023/03/05 12:33:34;;;;;;;3.00;2.40;;;23.70;40.00;;;;;;5047521;28;20460;-79
2023/03/05 12:36:36;;;;;;;2.20;2.10;;;25.60;41.80;;;;;;5042935;28;20481;-81
2023/03/05 12:39:51;;;;;;;2.40;1.60;;;28.10;37.90;;;;;;5040941;28;20469;-79
2023/03/05 12:42:49;;;;;;;2.10;2.00;;;30.30;34.50;;;;;;4977108;28;20510;-80
2023/03/05 12:45:27;;;;;;;2.60;1.90;;;31.30;32.20;;;;;;4988441;28;20668;-82
2023/03/05 12:48:27;;;;;;;6.13;2.10;;;31.60;31.60;;;;;;5049562;28;20549;-85
2023/03/05 12:50:58;;;;;;;2.10;1.90;;;32.20;30.20;;;;;;5020361;28;20455;-85
2023/03/05 12:53:26;;;;;;;6.70;2.10;;;31.10;29.60;;;;;;5050579;28;20454;-85
2023/03/05 12:56:00;;;;;;;4.00;2.00;;;30.90;30.60;;;;;;5043478;28;20570;-84
2023/03/05 12:58:37;;;;;;;4.20;2.33;;;31.00;29.80;;;;;;5042384;28;20462;-83
2023/03/05 13:01:12;;;;;;;7.13;2.30;;;31.10;30.80;;;;;;5046745;28;20501;-84